Record high temperature 100.4°F Record low temperature 10.6°F Record high gust 40 mph Record high average 22.8 mph Record daily rain 11.65 in. Record low windchill 2.7°F Record high barometer 30.773 in. Record low barometer 29.184 in.
Daily high pressure 29.941 in. Daily low pressure 29.910 in. Daily low windchill 50.1°F Daily high heat index 51.4°F Daily high gust speed 7.0 mph SSW Daily high average speed 2.8 mph SSW
Forecast: partly cloudy and cooler.
On the Greenway Weather Data - Tigard OR
LAST READING AT TIME: 1:28 AM DATE: October 26 2014, time of next update: 1:29 am
Current WeatherNight time/Dry Current Temperature 50.1°F (10.1°C), Apparent temp 49.6°F
Maximum Temperature (since midnight)51.4°F at: 12:00 AM Minimum Temperature (since midnight)50.1°F at: 1:27 AM
Average windspeed (ten minute)0.8 mph Wind Direction (ten minute)SW (221°)
Windchill Temperature 50.1°F Maximum Gust (last hour) 7 mph at: 1:10 AM
Maximum Gust (since midnight) 7 mph at: 1:10 AM Maximum 1 minute average (since midnight)2.8 mph at: 12:10 AM
Rainfall (last hour)0.00 in. (0.0 mm) Rainfall (since midnight)0.00 in. (0.0 mm) ---
Rainfall This month 4.81 in. (122.2 mm) Rainfall To date this year 4.81 in. (122.2 mm)
Maximum rain per minute (last hour)0.00 in/min Maximum rain per hour (last 6 hours)0.02 in/hour
Yesterdays rainfall 0.22 in DewPoint 47.6°F (Wet Bulb :48.9°F )
Humidity 91 %, Humidex 51.3°F Barometer corrected to msl29.941 in. (1013.9 hPa)
Pressure change +0.02 in. (last hour) Trend (last hour)RISING SLOWLY
Pressure change (last 12 hours)+0.56 in Pressure change (last 6 hours)+0.19 in

This page is updated from recent data collected by a DAVIS VANTAGE PRO weather station Use the Reload or Refresh facility on your browser to retrieve the latest data.


Click here for the last 24 hour graph
Click here for the last 48 hour graph
Click here for the last 72 hour graph
Click here for the month to date graph


Weather report/Warning/Metars

PORTLAND-HILLSBORO AIRPORT, OR, United States (KHIO) 45-33N 122-57W 68M
Oct 26, 2014 - 03:53 AM EDT / 2014.10.26 0753 UTC
Wind: from the S (180 degrees) at 9 MPH (8 KT):0
Visibility: 10 mile(s):0
Sky conditions: clear
Precipitation last hour: A trace
Temperature: 50.0 F (10.0 C)
Dew Point: 48.0 F (8.9 C)
Relative Humidity: 92%
Pressure (altimeter): 29.9 in. Hg (1012 hPa)
ob: KHIO 260753Z 18008KT 10SM CLR 10/09 A2990 RMK AO2 RAE00 SLP126 P0000 T01000089 401720072
cycle: 8
PORTLAND INTERNATIONAL  AIRPORT, OR, United States (KPDX) 45-35N 122-36W 7M
Oct 26, 2014 - 02:53 AM EDT / 2014.10.26 0653 UTC
Wind: from the SSW (200 degrees) at 12 MPH (10 KT):0
Visibility: 10 mile(s):0
Sky conditions: overcast
Weather: light rain
Precipitation last hour: A trace
Temperature: 52.0 F (11.1 C)
Dew Point: 48.9 F (9.4 C)
Relative Humidity: 89%
Pressure (altimeter): 29.9 in. Hg (1012 hPa)
ob: KPDX 260653Z 20010KT 10SM -RA BKN070 OVC090 11/09 A2990 RMK AO2 RAB18 SLP123 P0000 T01110094 
cycle: 7
PORTLAND-TROUTDALE AIRPORT, OR, United States (KTTD) 45-33N 122-25W 14M
Oct 26, 2014 - 03:53 AM EDT / 2014.10.26 0753 UTC
Wind: from the SSW (210 degrees) at 12 MPH (10 KT):0
Visibility: 10 mile(s):0
Sky conditions: mostly cloudy
Precipitation last hour: A trace
Temperature: 53.1 F (11.7 C)
Dew Point: 46.9 F (8.3 C)
Relative Humidity: 79%
Pressure (altimeter): 29.91 in. Hg (1012 hPa)
ob: KTTD 260753Z AUTO 21010KT 10SM FEW075 SCT090 BKN110 12/08 A2991 RMK AO2 RAB12E22 SLP129 P0000 T01170083 401830111
cycle: 8
MCMINNVILLE MUNICIPAL AIRPORT , OR, United States (KMMV) 45-12N 123-08W 48M
Oct 26, 2014 - 03:53 AM EDT / 2014.10.26 0753 UTC
Wind: from the SSW (200 degrees) at 9 MPH (8 KT):0
Visibility: 10 mile(s):0
Sky conditions: clear
Temperature: 50.0 F (10.0 C)
Dew Point: 46.0 F (7.8 C)
Relative Humidity: 86%
Pressure (altimeter): 29.94 in. Hg (1013 hPa)
ob: KMMV 260753Z AUTO 20008KT 10SM CLR 10/08 A2994 RMK AO2 SLP139 T01000078 401780072
cycle: 8
SALEM MCNARY FIELD, OR, United States (KSLE) 44-54N 123-00W 59M
Oct 26, 2014 - 03:56 AM EDT / 2014.10.26 0756 UTC
Wind: from the S (180 degrees) at 12 MPH (10 KT):0
Visibility: 10 mile(s):0
Sky conditions: clear
Precipitation last hour: 0.01 inches
Temperature: 50.0 F (10.0 C)
Dew Point: 46.0 F (7.8 C)
Relative Humidity: 86%
Pressure (altimeter): 29.96 in. Hg (1014 hPa)
ob: KSLE 260756Z AUTO 18010KT 10SM CLR 10/08 A2996 RMK AO2 RAE09 SLP145 P0001 T01000078 401830078
cycle: 8


Sunset at:
6:08 pm

Moonrise at:
10:31 am 10/26/14

Moonset at:
7:26 pm 10/25/14

First Quarter  31 October 2014
Full moon  6 November 2014
Last Quarter14 November 2014
New moon 22 November 2014
Moon age: 2 days,8 hours,14 minutes,6%
Hours of possible daylight today was 10:26



Use the RELOAD facility on your browser to retrieve the latest data.

Click here for current Fire weather info
Click here for the daily CLIMATOLOGICAL SUMMARY
Click here for a daily update of the averages/extremes to date for the month




Created by "Weather Display" software version 10.37R Build 81 at this start time/date 6:08 pm 10/22/2014




On The Greenway Weather Web Site

 
 
HELP US OUT
Help us keep this weather station on the web. for the Tigard / Portland internet users to use. If you would like to help, click the donate button below
 
This site is purely funded by donations and by myself (Ray Cooper)
Anything you can do will help keep this station on the net
Average cost per year is $665 to publish and host this site excluding the cost of the weather equipment
Buyastrostuff.com is kind enough to host our DNS and email at no cost.
THANKS GUYS & Gals for helping
Have a Question,or just want to talk. Contact me at:
Ray Cooper @ Buyastrostuff.com